Pont Aven — FNPN — position and weather

sailwx.info

Track history (hours):
 
Tides and Currents Weather Stations Pressure Air Temp Water Temp Dewpoint Dewpoint Depression Visibility Wind Speed Wind Dir Waves Ship Positions

Pont Aven

Last reported at 2017-May-25 10:00 UTC. Time now 2017-May-25 10:28 UTC.
Position N 48°36' W 005°17'.

Length 185 m; beam 31 m.

Type: Passenger vessel. MMSI: 228183600.

Date/timePositionNaut miles runAvg speedWind from/ knotsBaromVisibWave heightAir tempDewpointWater temp
2017-May-25 10:00N 48°36' W 005°17'1019.8
2017-May-25 09:30N 48°27' W 005°23'1121.5
2017-May-25 09:00N 48°16' W 005°19'1122.1
2017-May-25 08:30N 48°05' W 005°16'1121.4
2017-May-25 08:00N 47°55' W 005°13'1122.4
2017-May-25 07:31N 47°44' W 005°09'1122.9
2017-May-25 07:01N 47°33' W 005°05'1223.1
2017-May-25 06:30N 47°22' W 005°01'1223.1
2017-May-25 06:00N 47°11' W 004°57'1523.1
2017-May-25 05:22N 46°56' W 004°52'822.8
2017-May-25 05:00N 46°48' W 004°50'1223.3
2017-May-25 04:31N 46°37' W 004°46'50 2.3
2017-May-24 06:24N 47°25' W 005°03'1024.1
2017-May-24 05:58N 47°35' W 005°07'4924.2
2017-May-24 03:56N 48°23' W 005°25'1020.7
2017-May-24 03:27N 48°33' W 005°21'1021.8
2017-May-24 03:00N 48°40' W 005°11'1121.5
2017-May-24 02:30N 48°47' W 004°59'1321.3
2017-May-24 01:55N 48°54' W 004°44'4822.7
2017-May-23 23:48N 49°27' W 003°50'1024.0
2017-May-23 23:22N 49°34' W 003°39'924.8
2017-May-23 23:00N 49°40' W 003°28'1225.0
2017-May-23 22:30N 49°48' W 003°13'1224.9
2017-May-23 22:00N 49°56' W 002°58'1224.2
2017-May-23 21:31N 50°01' W 002°41'6521.8
2017-May-23 18:32N 50°32' W 001°11'219.6
2017-May-23 18:27N 50°32' W 001°09'818.3
2017-May-23 18:01N 50°38' W 000°60'816.3
2017-May-23 17:31N 50°45' W 001°05'4 7.3
2017-May-23 17:00N 50°49' W 001°06'0 0.0
2017-May-23 16:30N 50°49' W 001°06'0 0.0
2017-May-23 16:01N 50°49' W 001°06'0 0.0
2017-May-23 15:30N 50°49' W 001°06'0 0.0
2017-May-23 15:00N 50°49' W 001°06'0 0.1
2017-May-23 14:00N 50°49' W 001°06'3 6.0
2017-May-23 13:30N 50°46' W 001°05'714.2
2017-May-23 13:00N 50°40' W 000°59'1019.6
2017-May-23 12:30N 50°33' W 001°11'9221.2
2017-May-23 08:09N 49°41' W 003°08'422.8
2017-May-23 07:59N 49°38' W 003°13'6522.8
2017-May-23 05:07N 48°59' W 004°34'323.0
2017-May-23 05:00N 48°58' W 004°37'1223.2
2017-May-23 04:30N 48°51' W 004°51'1223.2
2017-May-23 04:00N 48°43' W 005°05'1223.4
2017-May-23 03:30N 48°36' W 005°18'1122.0
2017-May-23 03:01N 48°25' W 005°23'1223.0
2017-May-23 02:30N 48°14' W 005°19'1123.0
2017-May-23 02:01N 48°03' W 005°15'1122.9
2017-May-23 01:31N 47°52' W 005°12'1223.0
2017-May-23 01:00N 47°41' W 005°07'1122.9
2017-May-23 00:31N 47°30' W 005°03'1122.8
2017-May-23 00:00N 47°18' W 005°00'1122.9
2017-May-22 23:31N 47°07' W 004°56'1222.9
2017-May-22 23:00N 46°56' W 004°53'1323.3
2017-May-22 22:28N 46°44' W 004°48'1322.9
2017-May-22 21:54N 46°31' W 004°44'1122.8
2017-May-22 21:25N 46°21' W 004°40'1322.8
2017-May-22 20:52N 46°08' W 004°36'1123.0
2017-May-22 20:23N 45°57' W 004°32'923.3
2017-May-22 20:00N 45°49' W 004°30'2822.7
2017-May-22 18:46N 45°21' W 004°21'134 6.8
2017-May-21 23:14N 47°32' W 005°04'522.9
2017-May-21 23:01N 47°37' W 005°06'1122.6
2017-May-21 22:30N 47°48' W 005°10'1122.2
2017-May-21 22:00N 47°59' W 005°13'1122.4
2017-May-21 21:30N 48°09' W 005°18'1222.4
2017-May-21 20:58N 48°21' W 005°22'1220.6
2017-May-21 20:24N 48°33' W 005°21'923.8
2017-May-21 20:01N 48°39' W 005°11'1223.9
2017-May-21 19:31N 48°47' W 004°57'1223.4
2017-May-21 19:00N 48°56' W 004°46'4023.6
2017-May-21 17:19N 49°35' W 004°30'923.3
2017-May-21 16:56N 49°43' W 004°26'1023.0
2017-May-21 16:30N 49°52' W 004°23'1223.0
2017-May-21 16:00N 50°03' W 004°17'1223.0
2017-May-21 15:30N 50°15' W 004°12'714.2
2017-May-21 15:01N 50°21' W 004°09'1 1.3
2017-May-21 14:30N 50°22' W 004°09'0 0.0
2017-May-21 13:30N 50°22' W 004°09'0 0.0
2017-May-21 13:00N 50°22' W 004°09'0 0.0
2017-May-21 12:30N 50°22' W 004°09'1 2.2
2017-May-21 12:00N 50°21' W 004°09'815.4
2017-May-21 11:31N 50°13' W 004°10'1324.0
2017-May-21 10:58N 50°00' W 004°08'1124.1
2017-May-21 10:30N 49°49' W 004°06'1224.1
2017-May-21 10:00N 49°37' W 004°04'1224.0
2017-May-21 09:31N 49°25' W 004°03'1723.9
2017-May-21 08:48N 49°09' W 004°00'723.7
2017-May-21 08:30N 49°01' W 003°59'18 4.5
2017-May-21 04:34N 48°43' W 003°57'2 9.7
2017-May-21 04:20N 48°46' W 003°57'22019.4
2017-May-20 17:00N 51°28' W 007°48'1020.7
2017-May-20 16:30N 51°35' W 008°00'1020.7
2017-May-20 16:01N 51°43' W 008°12'714.8
2017-May-20 15:30N 51°50' W 008°16'2 4.2
2017-May-20 15:00N 51°50' W 008°20'0 0.1
2017-May-20 14:30N 51°50' W 008°19'0 0.0
2017-May-20 13:30N 51°50' W 008°19'0 0.0
2017-May-20 13:00N 51°50' W 008°19'0 0.0
2017-May-20 12:30N 51°50' W 008°19'0 0.0
2017-May-20 12:00N 51°50' W 008°19'0 0.0
2017-May-20 11:30N 51°50' W 008°19'0 0.0
2017-May-20 11:00N 51°50' W 008°19'0 0.0
2017-May-20 10:30N 51°50' W 008°19'0 0.0
2017-May-20 10:00N 51°50' W 008°19'0 0.0
2017-May-20 09:30N 51°50' W 008°19'0 0.0
2017-May-20 09:00N 51°50' W 008°19'0 0.0
2017-May-20 08:30N 51°50' W 008°19'1 1.2
2017-May-20 08:00N 51°50' W 008°19'3 6.0
2017-May-20 07:30N 51°48' W 008°16'917.3
2017-May-20 07:00N 51°41' W 008°08'1020.7
2017-May-20 06:30N 51°34' W 007°56'1020.6
2017-May-20 06:00N 51°26' W 007°45'9320.5
2017-May-20 01:28N 50°22' W 005°58'2019.8
2017-May-20 00:28N 50°02' W 005°52'66 2.7
2017-May-19 00:23N 50°03' W 004°09'615.1
2017-May-19 00:00N 50°08' W 004°11'3 5.7
2017-May-18 23:30N 50°11' W 004°11'1 1.1
2017-May-18 23:00N 50°12' W 004°12'1 1.2
2017-May-18 22:30N 50°12' W 004°12'1 1.1
2017-May-18 22:00N 50°13' W 004°12'1 1.0
2017-May-18 21:30N 50°13' W 004°12'0 1.0
2017-May-18 21:00N 50°14' W 004°13'6 8.3
2017-May-18 20:21N 50°19' W 004°11'3 8.3
2017-May-18 20:00N 50°22' W 004°09'0 0.0
2017-May-18 15:13N 50°22' W 004°09'0 1.3
2017-May-18 15:01N 50°22' W 004°09'1615.8
2017-May-18 14:00N 50°07' W 004°17'1020.6
2017-May-18 13:30N 49°56' W 004°21'1020.5
2017-May-18 13:00N 49°47' W 004°26'6020.5
2017-May-18 10:06N 48°49' W 004°50'220.7
2017-May-18 10:00N 48°47' W 004°51'1121.0
2017-May-18 09:30N 48°37' W 004°56'1019.4
2017-May-18 09:01N 48°28' W 004°59'917.8
2017-May-18 08:31N 48°21' W 005°08'1223.1
2017-May-18 08:01N 48°10' W 005°09'1223.5
2017-May-18 07:31N 47°58' W 005°09'1223.2
2017-May-18 07:01N 47°46' W 005°05'5 0.2
2017-May-17 04:22N 47°51' W 005°07'922.1
2017-May-17 03:58N 47°59' W 005°10'1521.8
2017-May-17 03:17N 48°14' W 005°13'722.4
2017-May-17 02:58N 48°20' W 005°08'817.7
2017-May-17 02:30N 48°27' W 005°01'918.7
2017-May-17 02:01N 48°35' W 004°54'1122.3
2017-May-17 01:30N 48°43' W 004°43'1223.5
2017-May-17 01:00N 48°51' W 004°29'5322.9
2017-May-16 22:42N 49°30' W 003°35'1421.3
2017-May-16 22:02N 49°41' W 003°21'121.6
2017-May-16 22:00N 49°42' W 003°20'1021.3
2017-May-16 21:30N 49°50' W 003°10'1020.8
2017-May-16 21:00N 49°56' W 002°57'1121.6
2017-May-16 20:30N 50°00' W 002°41'5923.4
2017-May-16 17:59N 50°31' W 001°23'1223.9
2017-May-16 17:29N 50°37' W 001°07'713.8
2017-May-16 17:00N 50°43' W 001°03'611.4
2017-May-16 16:30N 50°49' W 001°06'0 0.7
2017-May-16 16:00N 50°49' W 001°06'0 0.0
2017-May-16 15:30N 50°49' W 001°06'0 0.0
2017-May-16 15:01N 50°49' W 001°06'0 0.0
2017-May-16 14:00N 50°49' W 001°06'0 0.0
2017-May-16 13:30N 50°49' W 001°06'0 0.3
2017-May-16 13:01N 50°49' W 001°06'3 6.4
2017-May-16 12:31N 50°45' W 001°05'713.6
2017-May-16 12:00N 50°39' W 001°05'1020.7
2017-May-16 11:30N 50°30' W 001°15'7222.3
2017-May-16 08:16N 49°49' W 002°47'621.5
2017-May-16 08:00N 49°46' W 002°55'1221.2
2017-May-16 07:27N 49°39' W 003°09'1021.3
2017-May-16 07:00N 49°32' W 003°19'1121.1
2017-May-16 06:30N 49°25' W 003°32'3022.5
2017-May-16 05:11N 49°05' W 004°05'623.7
2017-May-16 04:57N 49°01' W 004°11'1223.7
2017-May-16 04:27N 48°53' W 004°24'1123.7
2017-May-16 04:00N 48°45' W 004°35'1223.8
2017-May-16 03:31N 48°37' W 004°48'1122.9
2017-May-16 03:00N 48°28' W 004°59'816.3
2017-May-16 02:30N 48°22' W 005°07'1223.9
2017-May-16 02:00N 48°10' W 005°09'1223.5
2017-May-16 01:30N 47°58' W 005°10'1223.3
2017-May-16 01:00N 47°47' W 005°06'1223.4
2017-May-16 00:30N 47°35' W 005°03'1223.3
2017-May-15 23:59N 47°23' W 004°59'1223.6
2017-May-15 23:30N 47°12' W 004°55'  
Track history (hours):
 
Tides and Currents Weather Stations Pressure Air Temp Water Temp Dewpoint Dewpoint Depression Visibility Wind Speed Wind Dir Waves Ship Positions

Pont Aven

Last reported at 2017-May-25 10:00 UTC. Time now 2017-May-25 10:28 UTC.
Position N 48°36' W 005°17'.

Length 185 m; beam 31 m.

Type: Passenger vessel. MMSI: 228183600.

Date/timePositionNaut miles runAvg speedWind from/ knotsBaromVisibWave heightAir tempDewpointWater temp
2017-May-25 10:00N 48°36' W 005°17'1019.8
2017-May-25 09:30N 48°27' W 005°23'1121.5
2017-May-25 09:00N 48°16' W 005°19'1122.1
2017-May-25 08:30N 48°05' W 005°16'1121.4
2017-May-25 08:00N 47°55' W 005°13'1122.4
2017-May-25 07:31N 47°44' W 005°09'1122.9
2017-May-25 07:01N 47°33' W 005°05'1223.1
2017-May-25 06:30N 47°22' W 005°01'1223.1
2017-May-25 06:00N 47°11' W 004°57'1523.1
2017-May-25 05:22N 46°56' W 004°52'822.8
2017-May-25 05:00N 46°48' W 004°50'1223.3
2017-May-25 04:31N 46°37' W 004°46'50 2.3
2017-May-24 06:24N 47°25' W 005°03'1024.1
2017-May-24 05:58N 47°35' W 005°07'4924.2
2017-May-24 03:56N 48°23' W 005°25'1020.7
2017-May-24 03:27N 48°33' W 005°21'1021.8
2017-May-24 03:00N 48°40' W 005°11'1121.5
2017-May-24 02:30N 48°47' W 004°59'1321.3
2017-May-24 01:55N 48°54' W 004°44'4822.7
2017-May-23 23:48N 49°27' W 003°50'1024.0
2017-May-23 23:22N 49°34' W 003°39'924.8
2017-May-23 23:00N 49°40' W 003°28'1225.0
2017-May-23 22:30N 49°48' W 003°13'1224.9
2017-May-23 22:00N 49°56' W 002°58'1224.2
2017-May-23 21:31N 50°01' W 002°41'6521.8
2017-May-23 18:32N 50°32' W 001°11'219.6
2017-May-23 18:27N 50°32' W 001°09'818.3
2017-May-23 18:01N 50°38' W 000°60'816.3
2017-May-23 17:31N 50°45' W 001°05'4 7.3
2017-May-23 17:00N 50°49' W 001°06'0 0.0
2017-May-23 16:30N 50°49' W 001°06'0 0.0
2017-May-23 16:01N 50°49' W 001°06'0 0.0
2017-May-23 15:30N 50°49' W 001°06'0 0.0
2017-May-23 15:00N 50°49' W 001°06'0 0.1
2017-May-23 14:00N 50°49' W 001°06'3 6.0
2017-May-23 13:30N 50°46' W 001°05'714.2
2017-May-23 13:00N 50°40' W 000°59'1019.6
2017-May-23 12:30N 50°33' W 001°11'9221.2
2017-May-23 08:09N 49°41' W 003°08'422.8
2017-May-23 07:59N 49°38' W 003°13'6522.8
2017-May-23 05:07N 48°59' W 004°34'323.0
2017-May-23 05:00N 48°58' W 004°37'1223.2
2017-May-23 04:30N 48°51' W 004°51'1223.2
2017-May-23 04:00N 48°43' W 005°05'1223.4
2017-May-23 03:30N 48°36' W 005°18'1122.0
2017-May-23 03:01N 48°25' W 005°23'1223.0
2017-May-23 02:30N 48°14' W 005°19'1123.0
2017-May-23 02:01N 48°03' W 005°15'1122.9
2017-May-23 01:31N 47°52' W 005°12'1223.0
2017-May-23 01:00N 47°41' W 005°07'1122.9
2017-May-23 00:31N 47°30' W 005°03'1122.8
2017-May-23 00:00N 47°18' W 005°00'1122.9
2017-May-22 23:31N 47°07' W 004°56'1222.9
2017-May-22 23:00N 46°56' W 004°53'1323.3
2017-May-22 22:28N 46°44' W 004°48'1322.9
2017-May-22 21:54N 46°31' W 004°44'1122.8
2017-May-22 21:25N 46°21' W 004°40'1322.8
2017-May-22 20:52N 46°08' W 004°36'1123.0
2017-May-22 20:23N 45°57' W 004°32'923.3
2017-May-22 20:00N 45°49' W 004°30'2822.7
2017-May-22 18:46N 45°21' W 004°21'134 6.8
2017-May-21 23:14N 47°32' W 005°04'522.9
2017-May-21 23:01N 47°37' W 005°06'1122.6
2017-May-21 22:30N 47°48' W 005°10'1122.2
2017-May-21 22:00N 47°59' W 005°13'1122.4
2017-May-21 21:30N 48°09' W 005°18'1222.4
2017-May-21 20:58N 48°21' W 005°22'1220.6
2017-May-21 20:24N 48°33' W 005°21'923.8
2017-May-21 20:01N 48°39' W 005°11'1223.9
2017-May-21 19:31N 48°47' W 004°57'1223.4
2017-May-21 19:00N 48°56' W 004°46'4023.6
2017-May-21 17:19N 49°35' W 004°30'923.3
2017-May-21 16:56N 49°43' W 004°26'1023.0
2017-May-21 16:30N 49°52' W 004°23'1223.0
2017-May-21 16:00N 50°03' W 004°17'1223.0
2017-May-21 15:30N 50°15' W 004°12'714.2
2017-May-21 15:01N 50°21' W 004°09'1 1.3
2017-May-21 14:30N 50°22' W 004°09'0 0.0
2017-May-21 13:30N 50°22' W 004°09'0 0.0
2017-May-21 13:00N 50°22' W 004°09'0 0.0
2017-May-21 12:30N 50°22' W 004°09'1 2.2
2017-May-21 12:00N 50°21' W 004°09'815.4
2017-May-21 11:31N 50°13' W 004°10'1324.0
2017-May-21 10:58N 50°00' W 004°08'1124.1
2017-May-21 10:30N 49°49' W 004°06'1224.1
2017-May-21 10:00N 49°37' W 004°04'1224.0
2017-May-21 09:31N 49°25' W 004°03'1723.9
2017-May-21 08:48N 49°09' W 004°00'723.7
2017-May-21 08:30N 49°01' W 003°59'18 4.5
2017-May-21 04:34N 48°43' W 003°57'2 9.7
2017-May-21 04:20N 48°46' W 003°57'22019.4
2017-May-20 17:00N 51°28' W 007°48'1020.7
2017-May-20 16:30N 51°35' W 008°00'1020.7
2017-May-20 16:01N 51°43' W 008°12'714.8
2017-May-20 15:30N 51°50' W 008°16'2 4.2
2017-May-20 15:00N 51°50' W 008°20'0 0.1
2017-May-20 14:30N 51°50' W 008°19'0 0.0
2017-May-20 13:30N 51°50' W 008°19'0 0.0
2017-May-20 13:00N 51°50' W 008°19'0 0.0
2017-May-20 12:30N 51°50' W 008°19'0 0.0
2017-May-20 12:00N 51°50' W 008°19'0 0.0
2017-May-20 11:30N 51°50' W 008°19'0 0.0
2017-May-20 11:00N 51°50' W 008°19'0 0.0
2017-May-20 10:30N 51°50' W 008°19'0 0.0
2017-May-20 10:00N 51°50' W 008°19'0 0.0
2017-May-20 09:30N 51°50' W 008°19'0 0.0
2017-May-20 09:00N 51°50' W 008°19'0 0.0
2017-May-20 08:30N 51°50' W 008°19'1 1.2
2017-May-20 08:00N 51°50' W 008°19'3 6.0
2017-May-20 07:30N 51°48' W 008°16'917.3
2017-May-20 07:00N 51°41' W 008°08'1020.7
2017-May-20 06:30N 51°34' W 007°56'1020.6
2017-May-20 06:00N 51°26' W 007°45'9320.5
2017-May-20 01:28N 50°22' W 005°58'2019.8
2017-May-20 00:28N 50°02' W 005°52'66 2.7
2017-May-19 00:23N 50°03' W 004°09'615.1
2017-May-19 00:00N 50°08' W 004°11'3 5.7
2017-May-18 23:30N 50°11' W 004°11'1 1.1
2017-May-18 23:00N 50°12' W 004°12'1 1.2
2017-May-18 22:30N 50°12' W 004°12'1 1.1
2017-May-18 22:00N 50°13' W 004°12'1 1.0
2017-May-18 21:30N 50°13' W 004°12'0 1.0
2017-May-18 21:00N 50°14' W 004°13'6 8.3
2017-May-18 20:21N 50°19' W 004°11'3 8.3
2017-May-18 20:00N 50°22' W 004°09'0 0.0
2017-May-18 15:13N 50°22' W 004°09'0 1.3
2017-May-18 15:01N 50°22' W 004°09'1615.8
2017-May-18 14:00N 50°07' W 004°17'1020.6
2017-May-18 13:30N 49°56' W 004°21'1020.5
2017-May-18 13:00N 49°47' W 004°26'6020.5
2017-May-18 10:06N 48°49' W 004°50'220.7
2017-May-18 10:00N 48°47' W 004°51'1121.0
2017-May-18 09:30N 48°37' W 004°56'1019.4
2017-May-18 09:01N 48°28' W 004°59'917.8
2017-May-18 08:31N 48°21' W 005°08'1223.1
2017-May-18 08:01N 48°10' W 005°09'1223.5
2017-May-18 07:31N 47°58' W 005°09'1223.2
2017-May-18 07:01N 47°46' W 005°05'5 0.2
2017-May-17 04:22N 47°51' W 005°07'922.1
2017-May-17 03:58N 47°59' W 005°10'1521.8
2017-May-17 03:17N 48°14' W 005°13'722.4
2017-May-17 02:58N 48°20' W 005°08'817.7
2017-May-17 02:30N 48°27' W 005°01'918.7
2017-May-17 02:01N 48°35' W 004°54'1122.3
2017-May-17 01:30N 48°43' W 004°43'1223.5
2017-May-17 01:00N 48°51' W 004°29'5322.9
2017-May-16 22:42N 49°30' W 003°35'1421.3
2017-May-16 22:02N 49°41' W 003°21'121.6
2017-May-16 22:00N 49°42' W 003°20'1021.3
2017-May-16 21:30N 49°50' W 003°10'1020.8
2017-May-16 21:00N 49°56' W 002°57'1121.6
2017-May-16 20:30N 50°00' W 002°41'5923.4
2017-May-16 17:59N 50°31' W 001°23'1223.9
2017-May-16 17:29N 50°37' W 001°07'713.8
2017-May-16 17:00N 50°43' W 001°03'611.4
2017-May-16 16:30N 50°49' W 001°06'0 0.7
2017-May-16 16:00N 50°49' W 001°06'0 0.0
2017-May-16 15:30N 50°49' W 001°06'0 0.0
2017-May-16 15:01N 50°49' W 001°06'0 0.0
2017-May-16 14:00N 50°49' W 001°06'0 0.0
2017-May-16 13:30N 50°49' W 001°06'0 0.3
2017-May-16 13:01N 50°49' W 001°06'3 6.4
2017-May-16 12:31N 50°45' W 001°05'713.6
2017-May-16 12:00N 50°39' W 001°05'1020.7
2017-May-16 11:30N 50°30' W 001°15'7222.3
2017-May-16 08:16N 49°49' W 002°47'621.5
2017-May-16 08:00N 49°46' W 002°55'1221.2
2017-May-16 07:27N 49°39' W 003°09'1021.3
2017-May-16 07:00N 49°32' W 003°19'1121.1
2017-May-16 06:30N 49°25' W 003°32'3022.5
2017-May-16 05:11N 49°05' W 004°05'623.7
2017-May-16 04:57N 49°01' W 004°11'1223.7
2017-May-16 04:27N 48°53' W 004°24'1123.7
2017-May-16 04:00N 48°45' W 004°35'1223.8
2017-May-16 03:31N 48°37' W 004°48'1122.9
2017-May-16 03:00N 48°28' W 004°59'816.3
2017-May-16 02:30N 48°22' W 005°07'1223.9
2017-May-16 02:00N 48°10' W 005°09'1223.5
2017-May-16 01:30N 47°58' W 005°10'1223.3
2017-May-16 01:00N 47°47' W 005°06'1223.4
2017-May-16 00:30N 47°35' W 005°03'1223.3
2017-May-15 23:59N 47°23' W 004°59'1223.6
2017-May-15 23:30N 47°12' W 004°55'  

Dump ship's entire track history